默认 日期 大小 文件数 浏览量 最新下载 xml
mas-10磁力链接相关资源由用户搜索指令自动获取,结果来源于网络,本站不存储任何资料,亦不承担任何责任,请于24小时内删除,搜索到708个磁力,用时20ms。
    {"autorun.inf": 660, "WWW.SUMOTORRENT.SZ.jpg": 77068, "Torrent downloaded from Kickass.to.txt": 44, "windows Mojave 10.16.b11 (18A389) [MAS] !{Latest}.exe": 20290488, "windows Mojave 10.16.b11 (18A389) [MAS] !{Latest}.nfo": 388}
创建时间: 2018-11-26 00:20:19 大小:19.43 MB 文件数量:5 热度:8 最近下载:2025-01-04 04:44:03
    {"Logic_Pro_X_10.4.2_MAS_[TNT].dmg": 1706757538}
创建时间: 2018-11-28 14:24:30 大小:1.59 GB 文件数量:1 热度:8 最近下载:2023-04-20 06:40:06
    {"Final_Cut_Pro_1044_MAS_macOS.zip": 9463762}
创建时间: 2018-12-05 02:47:25 大小:9.03 MB 文件数量:1 热度:7 最近下载:2025-04-03 04:59:02
    {"Install.Notes.url": 448, "Logic Pro X 10.2.0 OS X [MAS][TNT].exe": 9590752, "Torrent downloaded from Divxhunt.me.txt": 60}
创建时间: 2018-12-05 14:56:56 大小:9.15 MB 文件数量:3 热度:10 最近下载:2025-01-11 04:42:03
    ... 02-Pretty Penny.flac": 30557013, "10-Sex Type Thing.flac": 31927524 ... , "Stone Temple Pilots- 12-10-94 Universal Amphitheatre, Los Angeles ... X-Mas.md5": 681, "Stone Temple Pilots- 12-10-94 ... Universal Amphitheatre, Los Angeles, CA, Almost Acoustic X-Mas ...
创建时间: 2018-12-06 22:01:10 大小:280.3 MB 文件数量:14 热度:10 最近下载:2025-02-10 05:04:01
    {"Install.Notes.url": 448, "Logic Pro X 10.2.0 OS X [MAS][TNT].exe": 9590752, "Torrent downloaded from Divxhunt.me.txt": 60}
创建时间: 2018-12-07 21:20:23 大小:9.15 MB 文件数量:3 热度:9 最近下载:2025-01-11 06:57:04
    {"Readme!!.url": 1148, "Torrent downloaded from Thepiratebay.sx.txt": 88, "Final Cut Pro X 10.3.4 macOS [MAS][dada].exe": 28254140, "Final Cut Pro X 10.3.4 macOS [MAS][dada].nfo": 872}
创建时间: 2018-12-08 04:34:53 大小:26.95 MB 文件数量:4 热度:5 最近下载:2022-04-23 05:43:01
    {"Install.Notes.url": 448, "Logic Pro X 10.2.0 OS X [MAS][TNT].exe": 9590752, "Torrent downloaded from Divxhunt.me.txt": 60}
创建时间: 2018-12-09 04:45:56 大小:9.15 MB 文件数量:3 热度:9 最近下载:2025-09-30 04:38:01
    {"Install.Notes.url": 448, "Logic Pro X 10.2.0 OS X [MAS][TNT].exe": 9590752, "Torrent downloaded from Divxhunt.me.txt": 60}
创建时间: 2018-12-11 03:21:32 大小:9.15 MB 文件数量:3 热度:5 最近下载:2022-04-23 06:52:27
    {"Logic_Pro_X_1043_OS_X_MAS.zip": 9463618}
创建时间: 2018-12-12 06:32:01 大小:9.03 MB 文件数量:1 热度:9 最近下载:2025-03-25 17:53:03
    {"Los 10 Lugares Mas Misteriosos Del Mundo [DVDRIP][Spanish][newpct.com].wmv": 586240620}
创建时间: 2018-12-16 17:00:31 大小:559.08 MB 文件数量:1 热度:5 最近下载:2022-04-23 06:15:42
    {"Install.Notes.url": 448, "Logic Pro X 10.2.0 OS X [MAS][TNT].exe": 9590752, "Torrent downloaded from Divxhunt.me.txt": 60}
创建时间: 2018-12-17 07:39:20 大小:9.15 MB 文件数量:3 热度:7 最近下载:2025-04-17 22:13:02
    {"Final_Cut_Pro_X_1034_macOS_MASdada.zip": 9464050}
创建时间: 2018-12-19 01:02:21 大小:9.03 MB 文件数量:1 热度:7 最近下载:2022-04-23 07:05:26
    ... - BoA THE LIVE 2011 X’mas The 10 th Anniversary Edition (2012 ...
创建时间: 2018-12-19 02:48:16 大小:7.52 GB 文件数量:17 热度:19 最近下载:2025-08-04 14:05:11
    {"MAS020.avi": 1322774004, "MAS020b.jpg": 170935, "MAS-020_SS.jpg": 406500}
创建时间: 2018-12-19 04:37:56 大小:1.23 GB 文件数量:3 热度:20 最近下载:2025-08-03 03:10:04
    {"Install.Notes.url": 448, "Logic Pro X 10.2.0 OS X [MAS][TNT].exe": 9590752, "Torrent downloaded from Divxhunt.me.txt": 60}
创建时间: 2018-12-19 16:31:23 大小:9.15 MB 文件数量:3 热度:11 最近下载:2024-08-28 10:38:01
    {"Install.Notes.url": 448, "Logic Pro X 10.2.0 OS X [MAS][TNT].exe": 9590752, "Torrent downloaded from Divxhunt.me.txt": 60}
创建时间: 2018-12-19 23:57:13 大小:9.15 MB 文件数量:3 热度:9 最近下载:2024-04-16 14:32:02
    {"Motion 5.3.2 MAS [TNT].dmg": 2161292598, "Compressor 4.3.2 MAS [TNT].dmg": 404264722, "Final Cut Pro 10.3.3 MAS [TNT].dmg": 2809712806}
创建时间: 2018-12-20 02:03:26 大小:5.01 GB 文件数量:3 热度:13 最近下载:2025-08-29 08:38:02
    {"Install.Notes.url": 448, "Logic Pro X 10.2.0 OS X [MAS][TNT].exe": 9590750, "Torrent downloaded from Divxhunt.me.txt": 60}
创建时间: 2018-12-20 23:39:57 大小:9.15 MB 文件数量:3 热度:12 最近下载:2025-10-03 06:03:01
    {"Final_Cut_Pro_X_1034_macOS_MASdada.zip": 9464050}
创建时间: 2018-12-21 00:09:06 大小:9.03 MB 文件数量:1 热度:6 最近下载:2022-04-23 06:49:28